Time;durP1;ratioP1;P1;durP2;ratioP2;P2;SDS_P1;SDS_P2;PMS_P1;PMS_P2;Temp;Humidity;BMP_temperature;BMP_pressure;BME280_temperature;BME280_humidity;BME280_pressure;Samples;Min_cycle;Max_cycle;Signal;HPM_P1;HPM_P2
2023/10/31 00:03:02;;;;;;;4.40;1.58;;;;;;;14.00;84.86;100294.81;10378276;27;97282;-76
2023/10/31 00:08:06;;;;;;;4.38;1.52;;;;;;;13.92;85.48;100297.00;10370973;28;96789;-76
2023/10/31 00:13:09;;;;;;;2.63;1.75;;;;;;;13.93;85.20;100292.56;10365278;28;98796;-76
2023/10/31 00:18:14;;;;;;;3.47;1.67;;;;;;;13.84;85.27;100303.63;10373727;28;98907;-75
2023/10/31 00:23:18;;;;;;;3.60;1.55;;;;;;;13.92;85.47;100301.44;10376788;28;97192;-75
2023/10/31 00:28:22;;;;;;;4.50;1.60;;;;;;;13.85;85.54;100310.63;10372813;28;96914;-76
2023/10/31 00:33:27;;;;;;;2.88;1.63;;;;;;;13.74;86.01;100297.09;10375429;28;99072;-77
2023/10/31 00:38:30;;;;;;;;;;;;;;;13.75;86.27;100312.00;10374183;28;98788;-77
2023/10/31 00:43:33;;;;;;;3.03;1.42;;;;;;;13.65;86.51;100315.16;10372437;28;96869;-77
2023/10/31 00:48:38;;;;;;;4.43;1.70;;;;;;;13.57;87.81;100312.03;10364002;28;97513;-76
2023/10/31 00:53:42;;;;;;;3.42;1.52;;;;;;;13.59;87.08;100320.75;10372570;28;97131;-76
2023/10/31 00:58:45;;;;;;;4.75;1.30;;;;;;;13.65;87.81;100314.28;10374684;28;99011;-76
2023/10/31 01:03:50;;;;;;;3.08;1.48;;;;;;;13.56;87.25;100314.75;10366786;28;98614;-75
2023/10/31 01:08:53;;;;;;;3.80;1.92;;;;;;;13.43;88.59;100306.59;10374923;28;96800;-76
2023/10/31 01:13:57;;;;;;;2.92;1.40;;;;;;;13.42;88.70;100309.31;10372550;28;96832;-76
2023/10/31 01:19:02;;;;;;;4.57;1.58;;;;;;;13.41;88.11;100311.13;10370886;28;98705;-76
2023/10/31 01:24:06;;;;;;;4.22;1.50;;;;;;;13.44;87.79;100302.16;10371744;28;98709;-76
2023/10/31 01:29:10;;;;;;;;;;;;;;;13.29;88.45;100301.13;10371532;28;98783;-76
2023/10/31 01:34:14;;;;;;;5.40;1.95;;;;;;;13.26;87.88;100308.38;10369412;28;98424;-77
2023/10/31 01:39:18;;;;;;;7.05;1.33;;;;;;;13.30;88.47;100310.78;10369200;28;97326;-76
2023/10/31 01:44:21;;;;;;;4.10;1.52;;;;;;;13.26;87.83;100308.38;10377260;28;100138;-76
2023/10/31 01:49:26;;;;;;;3.47;1.55;;;;;;;13.30;88.90;100309.91;10372262;28;96809;-76
2023/10/31 01:54:29;;;;;;;3.97;1.55;;;;;;;13.26;88.91;100316.31;10374956;28;96851;-75
2023/10/31 01:59:33;;;;;;;3.90;2.28;;;;;;;13.25;88.86;100306.66;10363900;28;97771;-75
2023/10/31 02:04:38;;;;;;;6.00;2.53;;;;;;;13.24;90.31;100310.25;10368741;28;96877;-75
2023/10/31 02:09:42;;;;;;;7.05;2.35;;;;;;;13.26;89.24;100313.66;10371806;28;97201;-75
2023/10/31 02:14:45;;;;;;;3.80;1.80;;;;;;;13.25;89.58;100307.53;10367974;28;98602;-75
2023/10/31 02:19:50;;;;;;;3.60;1.75;;;;;;;13.22;90.14;100310.31;10361912;28;99154;-75
2023/10/31 02:24:56;;;;;;;4.93;1.52;;;;;;;13.24;89.27;100305.78;10370812;28;98298;-75
2023/10/31 02:29:59;;;;;;;;;;;;;;;13.24;89.58;100307.59;10371779;28;97153;-75
2023/10/31 02:35:02;;;;;;;3.05;1.38;;;;;;;13.26;89.80;100313.66;10369143;28;97546;-76
2023/10/31 02:40:09;;;;;;;4.28;1.65;;;;;;;13.31;89.18;100319.59;10371156;28;98379;-75
2023/10/31 02:45:13;;;;;;;3.63;1.80;;;;;;;13.34;90.04;100316.78;10363469;28;98886;-76
2023/10/31 02:50:16;;;;;;;6.13;1.73;;;;;;;13.38;89.10;100316.53;10369804;28;98514;-76
2023/10/31 02:55:21;;;;;;;4.72;1.95;;;;;;;13.37;89.21;100320.13;10369425;28;98950;-75
2023/10/31 03:00:25;;;;;;;6.38;1.80;;;;;;;13.39;89.10;100317.41;10363406;28;98751;-75
2023/10/31 03:05:28;;;;;;;3.53;1.83;;;;;;;13.38;89.13;100321.00;10367318;28;99007;-75
2023/10/31 03:10:33;;;;;;;4.47;1.90;;;;;;;13.36;89.44;100315.75;10368492;28;97676;-75
2023/10/31 03:15:36;;;;;;;2.85;1.70;;;;;;;13.37;89.35;100313.97;10363553;28;97412;-75
2023/10/31 03:20:40;;;;;;;4.35;1.73;;;;;;;13.40;89.38;100306.75;10366799;28;96883;-75
2023/10/31 03:25:44;;;;;;;3.80;1.42;;;;;;;13.33;89.32;100294.75;10368946;28;98317;-75
2023/10/31 03:30:48;;;;;;;3.90;1.65;;;;;;;13.36;89.30;100291.13;10363475;28;97432;-76
2023/10/31 03:35:52;;;;;;;2.70;1.53;;;;;;;13.31;89.83;100288.69;10366732;28;96884;-75
2023/10/31 03:40:56;;;;;;;3.28;1.40;;;;;;;13.27;90.52;100286.28;10362621;28;97454;-75
2023/10/31 03:46:00;;;;;;;6.40;1.55;;;;;;;13.25;90.21;100282.88;10364652;28;96827;-75
2023/10/31 03:51:04;;;;;;;3.17;1.52;;;;;;;13.24;90.13;100284.66;10366749;28;96877;-75
2023/10/31 03:56:09;;;;;;;3.60;1.73;;;;;;;13.28;90.01;100280.06;10366065;28;98953;-76
2023/10/31 04:01:12;;;;;;;2.85;1.60;;;;;;;13.22;90.04;100272.47;10364083;27;98465;-75
2023/10/31 04:06:16;;;;;;;2.10;1.30;;;;;;;13.20;90.10;100274.31;10362502;28;97626;-75
2023/10/31 04:11:21;;;;;;;3.85;1.60;;;;;;;13.20;90.18;100274.31;10366033;28;97788;-76
2023/10/31 04:16:24;;;;;;;3.03;1.60;;;;;;;13.24;90.06;100274.06;10359979;28;96941;-75
2023/10/31 04:21:27;;;;;;;1.90;1.33;;;;;;;13.28;89.62;100273.00;10369578;28;97072;-76
2023/10/31 04:26:32;;;;;;;2.10;1.40;;;;;;;13.31;89.21;100272.84;10367851;28;98701;-76
2023/10/31 04:31:35;;;;;;;2.72;1.50;;;;;;;13.20;89.96;100269.91;10364884;28;98430;-76
2023/10/31 04:36:46;;;;;;;3.13;1.67;;;;;;;13.20;89.86;100269.91;10364971;28;98857;-76
2023/10/31 04:41:51;;;;;;;2.85;1.50;;;;;;;13.19;89.83;100277.91;10366759;28;97913;-76
2023/10/31 04:46:55;;;;;;;5.93;1.58;;;;;;;13.19;90.02;100280.56;10349266;22;97768;-76
2023/10/31 04:51:59;;;;;;;3.50;1.48;;;;;;;13.19;89.77;100288.47;10334207;28;97870;-76
2023/10/31 04:57:04;;;;;;;3.00;1.35;;;;;;;13.20;89.61;100280.47;10333521;28;97012;-77
2023/10/31 05:02:07;;;;;;;2.45;1.52;;;;;;;13.21;89.36;100271.59;10333989;28;98474;-77
2023/10/31 05:07:12;;;;;;;3.15;1.60;;;;;;;13.15;89.80;100276.34;10338149;28;97176;-76
2023/10/31 05:12:17;;;;;;;3.45;1.50;;;;;;;13.14;89.57;100277.25;10346799;28;96870;-77
2023/10/31 05:17:20;;;;;;;7.80;1.80;;;;;;;13.13;89.64;100279.06;10331703;28;98322;-76
2023/10/31 05:22:24;;;;;;;3.80;1.63;;;;;;;13.14;89.54;100279.91;10333568;28;97667;-76
2023/10/31 05:27:29;;;;;;;3.50;1.67;;;;;;;13.13;89.44;100284.34;10329606;28;97410;-76
2023/10/31 05:32:36;;;;;;;3.72;1.23;;;;;;;13.09;89.31;100282.78;10326541;28;97050;-77
2023/10/31 05:37:40;;;;;;;2.08;1.33;;;;;;;13.15;89.17;100271.91;10332112;28;97373;-79
2023/10/31 05:42:45;;;;;;;4.53;1.80;;;;;;;13.15;89.14;100276.34;10326128;28;96918;-77
2023/10/31 05:47:48;;;;;;;6.63;1.65;;;;;;;13.07;89.58;100274.06;10327649;28;99004;-78
2023/10/31 05:52:52;;;;;;;3.00;1.67;;;;;;;13.20;89.55;100276.97;10330493;28;98238;-76
2023/10/31 05:57:56;;;;;;;3.55;1.23;;;;;;;13.26;89.15;100281.97;10328296;28;97146;-76
2023/10/31 06:03:00;;;;;;;;;;;;;;;13.27;89.24;100287.16;10321867;28;96841;-76
2023/10/31 06:08:03;;;;;;;2.53;1.60;;;;;;;13.26;89.18;100279.31;10326277;28;96918;-77
2023/10/31 06:13:08;;;;;;;5.88;1.67;;;;;;;13.24;89.35;100286.47;10324223;28;98045;-78
2023/10/31 06:18:13;;;;;;;3.33;1.60;;;;;;;13.19;89.25;100269.97;10328926;28;98655;-77
2023/10/31 06:23:16;;;;;;;2.75;1.35;;;;;;;13.21;88.95;100273.38;10332814;28;97854;-78
2023/10/31 06:28:21;;;;;;;2.78;1.48;;;;;;;13.31;88.87;100278.13;10328474;28;96937;-78
2023/10/31 06:33:24;;;;;;;3.83;1.45;;;;;;;13.25;88.64;100282.88;10321936;28;99981;-78
2023/10/31 06:38:28;;;;;;;3.28;1.42;;;;;;;13.31;88.48;100278.13;10327804;28;98017;-78
2023/10/31 06:43:32;;;;;;;1.50;1.10;;;;;;;13.35;88.51;100281.47;10322030;28;98030;-81
2023/10/31 06:48:37;;;;;;;2.58;1.20;;;;;;;13.36;88.28;100289.31;10336328;28;96837;-79
2023/10/31 06:53:40;;;;;;;3.10;1.13;;;;;;;13.28;88.27;100290.63;10323776;28;96949;-78
2023/10/31 06:58:45;;;;;;;4.25;1.42;;;;;;;13.22;88.53;100297.09;10324131;28;96978;-78
2023/10/31 07:03:49;;;;;;;2.47;1.25;;;;;;;13.21;88.48;100295.38;10322220;28;98677;-75
2023/10/31 07:08:52;;;;;;;6.05;1.75;;;;;;;13.21;88.12;100307.72;10330564;28;99098;-76
2023/10/31 07:13:56;;;;;;;3.72;1.38;;;;;;;13.20;88.03;100311.31;10324826;28;97036;-76
2023/10/31 07:19:00;;;;;;;1.52;1.13;;;;;;;13.19;87.74;100325.47;10345380;28;97501;-77
2023/10/31 07:24:04;;;;;;;4.32;1.23;;;;;;;13.17;87.40;100327.31;10321441;28;98533;-78
2023/10/31 07:29:09;;;;;;;1.40;1.02;;;;;;;13.25;87.25;100338.38;10319289;28;99500;-76
2023/10/31 07:34:12;;;;;;;2.83;1.10;;;;;;;13.36;87.08;100350.09;10325137;28;98787;-80
2023/10/31 07:39:16;;;;;;;3.58;1.23;;;;;;;13.31;86.55;100357.41;10336661;28;98501;-80
2023/10/31 07:44:20;;;;;;;2.88;1.00;;;;;;;13.32;86.60;100358.28;10319847;28;98788;-80
2023/10/31 07:49:24;;;;;;;2.88;1.00;;;;;;;13.36;86.46;100371.25;10315935;28;98962;-79
2023/10/31 07:54:27;;;;;;;2.63;1.23;;;;;;;13.48;86.37;100377.75;10319638;28;97237;-80
2023/10/31 07:59:34;;;;;;;2.03;1.05;;;;;;;13.46;86.17;100374.31;10319724;28;96804;-79
2023/10/31 08:04:37;;;;;;;1.58;1.13;;;;;;;13.39;86.62;100380.84;10324737;28;99479;-79
2023/10/31 08:09:41;;;;;;;4.60;1.25;;;;;;;13.34;86.25;100386.34;10333380;28;98253;-79
2023/10/31 08:14:46;;;;;;;4.40;1.10;;;;;;;13.39;86.41;100387.00;10323722;28;98844;-79
2023/10/31 08:19:49;;;;;;;3.65;1.00;;;;;;;13.41;86.29;100398.34;10332650;28;96816;-79
2023/10/31 08:24:52;;;;;;;1.48;1.10;;;;;;;13.42;86.78;100400.03;10331758;28;97806;-79
2023/10/31 08:29:57;;;;;;;2.00;1.10;;;;;;;13.61;86.12;100398.22;10321106;28;98869;-79
2023/10/31 08:35:01;;;;;;;3.53;1.30;;;;;;;13.59;85.99;100402.72;10324633;28;100465;-78
2023/10/31 08:40:05;;;;;;;3.70;1.70;;;;;;;13.64;85.74;100408.63;10309710;28;97249;-82
2023/10/31 08:45:10;;;;;;;3.97;1.85;;;;;;;13.78;85.18;100401.81;10330798;28;98339;-78
2023/10/31 08:50:13;;;;;;;5.18;1.85;;;;;;;13.83;84.97;100402.44;10323502;28;97879;-83
2023/10/31 08:55:17;;;;;;;4.93;1.75;;;;;;;13.96;84.47;100401.72;10328814;28;96878;-78
2023/10/31 09:00:22;;;;;;;3.47;1.50;;;;;;;14.10;84.25;100414.28;10326335;28;97862;-82
2023/10/31 09:05:26;;;;;;;2.75;1.10;;;;;;;14.18;84.58;100420.88;10315148;28;97709;-81
2023/10/31 09:10:29;;;;;;;2.25;1.20;;;;;;;14.24;83.88;100423.22;10324587;28;99161;-78
2023/10/31 09:15:35;;;;;;;4.80;1.55;;;;;;;14.14;84.25;100421.13;10317159;28;100614;-81
2023/10/31 09:20:39;;;;;;;2.80;1.25;;;;;;;14.24;83.58;100419.72;10317809;28;98886;-79
2023/10/31 09:25:43;;;;;;;4.10;1.20;;;;;;;14.38;83.16;100417.22;10333081;28;97002;-78
2023/10/31 09:30:49;;;;;;;2.25;1.02;;;;;;;14.65;82.58;100411.31;10332034;28;97608;-78
2023/10/31 09:35:53;;;;;;;2.33;1.40;;;;;;;14.96;80.98;100401.66;10333327;28;97318;-77
2023/10/31 09:40:56;;;;;;;4.75;1.23;;;;;;;15.26;80.55;100400.00;10307216;28;97369;-77
2023/10/31 09:46:03;;;;;;;5.15;1.65;;;;;;;15.42;79.13;100396.44;10307156;28;96772;-78
2023/10/31 09:51:08;;;;;;;5.80;1.83;;;;;;;15.79;78.42;100390.69;10300629;28;97417;-78
2023/10/31 09:56:11;;;;;;;5.82;2.10;;;;;;;16.01;78.07;100394.72;10305260;28;97608;-79
2023/10/31 10:01:17;;;;;;;4.95;2.55;;;;;;;16.01;77.80;100384.09;10305149;28;97362;-79
2023/10/31 10:06:23;;;;;;;;;;;;;;;16.38;76.99;100376.47;10312419;28;97941;-78
2023/10/31 10:11:26;;;;;;;;;;;;;;;16.41;76.33;100381.63;10308156;28;98253;-78
2023/10/31 10:16:31;;;;;;;5.22;2.38;;;;;;;16.69;76.66;100375.44;10299593;28;97586;-78
2023/10/31 10:21:47;;;;;;;6.32;2.20;;;;;;;16.62;75.17;100372.34;10299970;28;96772;-78
2023/10/31 10:26:51;;;;;;;4.65;1.75;;;;;;;16.60;74.26;100366.25;10295901;28;96725;-79
2023/10/31 10:31:57;;;;;;;3.57;1.83;;;;;;;16.67;74.91;100367.56;10304491;28;97251;-79
2023/10/31 10:37:02;;;;;;;6.55;2.22;;;;;;;17.02;73.83;100368.00;10307846;28;98956;-79
2023/10/31 10:42:10;;;;;;;2.78;1.92;;;;;;;17.11;73.07;100361.25;10296005;28;97400;-79
2023/10/31 10:47:16;;;;;;;4.10;2.28;;;;;;;17.28;72.01;100379.63;10305215;28;96865;-81
2023/10/31 10:52:25;;;;;;;4.15;1.92;;;;;;;17.54;71.84;100366.34;10321977;28;97417;-82
2023/10/31 10:57:36;;;;;;;3.55;2.40;;;;;;;17.71;70.90;100379.38;10320142;28;96873;-82
2023/10/31 11:02:43;;;;;;;4.93;2.60;;;;;;;17.96;70.59;100381.25;10319552;28;98323;-82
2023/10/31 11:07:48;;;;;;;5.70;3.05;;;;;;;17.85;69.68;100370.47;10291954;28;97412;-82
2023/10/31 11:12:52;;;;;;;5.38;2.67;;;;;;;17.94;69.37;100370.72;10299670;28;97007;-82
2023/10/31 11:17:57;;;;;;;5.30;2.40;;;;;;;18.37;68.02;100357.94;10307511;28;98273;-82
2023/10/31 11:23:04;;;;;;;3.85;2.20;;;;;;;18.46;68.89;100343.13;10307511;28;96776;-82
2023/10/31 11:28:15;;;;;;;4.82;1.73;;;;;;;18.34;68.21;100333.34;10298706;28;97355;-81
2023/10/31 11:33:22;;;;;;;3.08;1.27;;;;;;;19.66;65.84;100330.72;10292604;28;96868;-82
2023/10/31 11:38:33;;;;;;;1.83;1.17;;;;;;;20.41;62.19;100313.31;10304784;28;97295;-82
2023/10/31 11:43:54;;;;;;;3.38;1.33;;;;;;;21.40;60.44;100308.66;10327259;28;97155;-80
2023/10/31 11:49:05;;;;;;;4.45;1.23;;;;;;;21.41;60.78;100304.97;10330415;28;96826;-83
2023/10/31 11:54:09;;;;;;;4.22;1.60;;;;;;;20.49;62.83;100301.03;10349531;28;96966;-81
2023/10/31 11:59:12;;;;;;;4.30;1.55;;;;;;;20.66;63.27;100286.31;10353393;28;96948;-82
2023/10/31 12:04:24;;;;;;;3.00;1.90;;;;;;;19.98;63.61;100278.34;10336765;28;96819;-81
2023/10/31 12:09:28;;;;;;;2.83;1.33;;;;;;;19.57;63.75;100272.69;10329211;28;99070;-79
2023/10/31 12:14:35;;;;;;;2.40;1.40;;;;;;;19.42;63.96;100264.03;10337596;28;97644;-76
2023/10/31 12:19:41;;;;;;;1.90;1.20;;;;;;;19.72;62.63;100255.53;10318370;28;98340;-75
2023/10/31 12:24:46;;;;;;;3.70;1.38;;;;;;;20.20;61.11;100231.13;10334759;28;97480;-76
2023/10/31 12:30:01;;;;;;;2.85;1.30;;;;;;;20.15;60.40;100230.66;10332465;28;97134;-75
2023/10/31 12:35:07;;;;;;;2.50;1.00;;;;;;;20.20;60.08;100220.44;10328311;28;97722;-75
2023/10/31 12:40:11;;;;;;;2.30;1.00;;;;;;;20.30;60.43;100204.56;10331381;28;98919;-75
2023/10/31 12:45:14;;;;;;;1.92;0.77;;;;;;;20.91;59.39;100203.09;10335267;28;97010;-75
2023/10/31 12:50:19;;;;;;;3.28;1.38;;;;;;;21.09;58.93;100194.38;10338995;28;98001;-80
2023/10/31 12:55:24;;;;;;;3.50;0.90;;;;;;;20.90;58.54;100196.88;10329553;28;99115;-79
2023/10/31 13:00:33;;;;;;;2.58;1.33;;;;;;;20.80;58.75;100163.88;10327009;28;98513;-79
2023/10/31 13:05:39;;;;;;;1.38;0.90;;;;;;;21.32;57.78;100158.53;10334381;28;98713;-79
2023/10/31 13:10:44;;;;;;;1.67;0.82;;;;;;;22.42;55.21;100154.13;10348368;28;98552;-79
2023/10/31 13:15:47;;;;;;;2.92;0.88;;;;;;;23.07;54.15;100139.22;10326645;28;98566;-79
2023/10/31 13:20:52;;;;;;;2.73;1.40;;;;;;;22.51;54.91;100139.03;10335609;28;98693;-81
2023/10/31 13:25:55;;;;;;;3.70;1.08;;;;;;;22.63;54.84;100121.81;10327807;28;98003;-80
2023/10/31 13:30:59;;;;;;;2.33;0.93;;;;;;;23.63;53.00;100121.34;10333046;28;98275;-80
2023/10/31 13:36:05;;;;;;;2.08;0.90;;;;;;;22.78;54.08;100117.78;10324026;28;97236;-79
2023/10/31 13:41:09;;;;;;;1.45;0.63;;;;;;;23.39;52.85;100115.59;10333734;28;97700;-81
2023/10/31 13:46:13;;;;;;;3.05;0.80;;;;;;;24.77;50.39;100111.81;10325579;28;98908;-79
2023/10/31 13:51:19;;;;;;;3.38;0.82;;;;;;;24.44;51.05;100107.09;10326995;28;97613;-81
2023/10/31 13:56:24;;;;;;;1.25;0.45;;;;;;;25.50;47.12;100100.63;10338162;28;96872;-79
2023/10/31 14:01:28;;;;;;;1.02;0.70;;;;;;;25.39;45.83;100102.75;10316981;28;97710;-80
2023/10/31 14:06:33;;;;;;;1.23;0.25;;;;;;;26.69;44.74;100090.53;10334930;28;98818;-79
2023/10/31 14:11:37;;;;;;;1.40;0.50;;;;;;;27.03;43.64;100092.25;10335079;28;97390;-79
2023/10/31 14:16:41;;;;;;;0.88;0.35;;;;;;;27.82;42.70;100074.22;10336340;28;99867;-80
2023/10/31 14:21:46;;;;;;;1.17;0.25;;;;;;;27.50;41.37;100087.78;10342045;28;97264;-83
2023/10/31 14:26:49;;;;;;;2.05;0.30;;;;;;;26.93;40.21;100092.38;10330711;28;96854;-78
2023/10/31 14:31:54;;;;;;;1.30;0.32;;;;;;;27.04;40.05;100089.38;10312801;28;98693;-79
2023/10/31 14:36:59;;;;;;;1.33;0.47;;;;;;;27.15;40.09;100088.22;10331385;28;96884;-78
2023/10/31 14:42:03;;;;;;;1.23;0.43;;;;;;;26.92;39.86;100082.59;10349743;28;98489;-79
2023/10/31 14:47:06;;;;;;;2.10;0.57;;;;;;;26.27;40.24;100086.16;10323861;28;96892;-77
2023/10/31 14:52:11;;;;;;;;;;;;;;;25.73;39.18;100082.94;10339122;28;96854;-78
2023/10/31 14:57:14;;;;;;;2.20;0.47;;;;;;;26.75;40.22;100079.03;10317686;28;98910;-78
2023/10/31 15:02:18;;;;;;;2.42;0.40;;;;;;;27.41;39.57;100086.97;10318833;28;97545;-78
2023/10/31 15:07:23;;;;;;;2.08;0.55;;;;;;;27.73;38.79;100094.19;10326060;28;97624;-78
2023/10/31 15:12:27;;;;;;;1.42;0.73;;;;;;;26.69;39.78;100079.72;10345577;28;98995;-78
2023/10/31 15:17:30;;;;;;;1.08;0.47;;;;;;;23.34;43.56;100062.31;10326822;28;97766;-74
2023/10/31 15:22:35;;;;;;;;;;;;;;;22.57;42.96;100055.34;10316071;28;97049;-77
2023/10/31 15:27:39;;;;;;;1.23;0.43;;;;;;;22.61;44.01;100062.94;10316649;28;98204;-78
2023/10/31 15:32:42;;;;;;;;;;;;;;;22.95;43.52;100067.91;10323309;28;97686;-78
2023/10/31 15:37:48;;;;;;;1.57;0.63;;;;;;;22.00;44.59;100072.19;10326585;28;98579;-79
2023/10/31 15:42:52;;;;;;;3.47;1.67;;;;;;;21.23;47.47;100064.78;10319753;28;97658;-79
2023/10/31 15:47:57;;;;;;;1.92;0.98;;;;;;;20.82;48.65;100062.94;10315217;28;97937;-79
2023/10/31 15:53:02;;;;;;;;;;;;;;;20.48;49.85;100066.75;10332261;28;97406;-78
2023/10/31 15:58:05;;;;;;;;;;;;;;;20.21;51.05;100067.19;10326684;28;97241;-79
2023/10/31 16:03:09;;;;;;;1.15;0.50;;;;;;;20.05;50.70;100065.88;10325049;28;98736;-79
2023/10/31 16:08:14;;;;;;;1.47;0.60;;;;;;;19.90;51.60;100061.78;10326376;28;99088;-81
2023/10/31 16:13:18;;;;;;;2.50;0.65;;;;;;;19.94;52.25;100069.41;10328898;28;97193;-76
2023/10/31 16:18:21;;;;;;;0.87;0.70;;;;;;;19.75;53.51;100073.69;10322006;28;98812;-76
2023/10/31 16:23:26;;;;;;;2.65;1.13;;;;;;;19.61;53.62;100081.97;10323547;28;96751;-78
2023/10/31 16:28:31;;;;;;;5.60;0.80;;;;;;;19.90;54.00;100072.47;10317780;28;97861;-76
2023/10/31 16:33:35;;;;;;;1.70;0.70;;;;;;;19.93;54.66;100075.72;10313961;28;98808;-76
2023/10/31 16:38:40;;;;;;;2.35;0.70;;;;;;;19.81;55.43;100071.38;10320479;28;96999;-76
2023/10/31 16:43:43;;;;;;;2.17;0.80;;;;;;;19.66;56.32;100079.78;10321704;28;98352;-76
2023/10/31 16:48:47;;;;;;;2.38;0.68;;;;;;;19.37;56.76;100060.69;10319151;28;97041;-76
2023/10/31 16:53:51;;;;;;;2.58;0.90;;;;;;;19.09;57.99;100063.81;10340368;28;96867;-77
2023/10/31 16:58:55;;;;;;;2.08;1.00;;;;;;;19.04;58.37;100047.31;10335228;28;99202;-77
2023/10/31 17:03:58;;;;;;;1.73;0.88;;;;;;;18.84;59.37;100048.00;10326749;28;98174;-76
2023/10/31 17:09:03;;;;;;;2.75;0.90;;;;;;;18.73;60.19;100059.47;10319765;28;98835;-77
2023/10/31 17:19:13;;;;;;;2.95;1.38;;;;;;;18.62;60.81;100066.59;10277306;28;98110;-78
2023/10/31 17:24:17;;;;;;;2.05;1.33;;;;;;;18.42;62.60;100053.91;10293701;28;98686;-77
2023/10/31 17:29:20;;;;;;;;;;;;;;;18.40;64.74;100067.34;10288223;28;99015;-76
2023/10/31 17:34:23;;;;;;;2.25;1.23;;;;;;;18.38;61.90;100071.91;10286913;28;99012;-75
2023/10/31 17:39:28;;;;;;;2.83;1.50;;;;;;;18.25;62.55;100059.63;10289272;28;98948;-76
2023/10/31 17:44:32;;;;;;;2.63;1.27;;;;;;;18.26;63.27;100050.66;10293004;28;97956;-75
2023/10/31 17:49:36;;;;;;;2.37;0.90;;;;;;;18.30;62.81;100052.16;10292361;28;97366;-76
2023/10/31 17:54:41;;;;;;;2.33;0.68;;;;;;;18.24;62.94;100055.25;10287169;28;98446;-75
2023/10/31 17:59:45;;;;;;;4.75;1.00;;;;;;;18.27;62.54;100055.88;10284489;28;96899;-74
2023/10/31 18:04:49;;;;;;;3.63;0.80;;;;;;;18.23;62.58;100042.91;10283652;28;99022;-76
2023/10/31 18:09:54;;;;;;;1.80;0.90;;;;;;;18.19;62.86;100043.09;10284310;28;96889;-77
2023/10/31 18:14:57;;;;;;;;;;;;;;;18.00;63.90;100061.41;10286199;28;98050;-79
2023/10/31 18:20:00;;;;;;;7.05;2.85;;;;;;;17.92;64.25;100065.59;10284710;28;99022;-74
2023/10/31 18:25:06;;;;;;;5.70;1.90;;;;;;;17.80;65.33;100055.81;10286420;28;96870;-74
2023/10/31 18:30:11;;;;;;;3.15;1.83;;;;;;;17.83;64.84;100043.16;10288055;28;98832;-73
2023/10/31 18:35:14;;;;;;;3.00;1.17;;;;;;;17.82;64.97;100041.47;10285133;28;98562;-73
2023/10/31 18:40:20;;;;;;;3.20;2.08;;;;;;;17.69;64.94;100045.94;10285946;28;96826;-73
2023/10/31 18:45:24;;;;;;;5.63;2.65;;;;;;;17.58;66.44;100035.25;10285394;28;96861;-73
2023/10/31 18:50:27;;;;;;;5.00;1.73;;;;;;;17.41;67.02;100048.00;10283613;28;98858;-73
2023/10/31 18:55:32;;;;;;;2.63;1.55;;;;;;;17.36;66.36;100047.50;10286353;28;97096;-74
2023/10/31 19:00:35;;;;;;;2.90;1.30;;;;;;;17.39;66.32;100050.78;10287768;28;99569;-74
2023/10/31 19:05:39;;;;;;;2.10;1.05;;;;;;;17.25;66.69;100056.22;10283831;28;97413;-74
2023/10/31 19:10:47;;;;;;;1.58;0.70;;;;;;;17.27;66.58;100053.44;10285345;28;97668;-74
2023/10/31 19:15:51;;;;;;;1.48;0.70;;;;;;;17.31;66.45;100053.09;10282786;28;98701;-74
2023/10/31 19:20:54;;;;;;;2.15;1.10;;;;;;;17.40;66.25;100036.50;10288682;28;98386;-76
2023/10/31 19:25:59;;;;;;;3.17;1.20;;;;;;;17.43;65.95;100035.47;10281591;28;100187;-74
2023/10/31 19:31:02;;;;;;;;;;;;;;;17.39;66.98;100018.00;10281131;28;98660;-73
2023/10/31 19:36:07;;;;;;;3.90;1.38;;;;;;;17.46;65.72;100021.94;10284596;28;99022;-74
2023/10/31 19:41:11;;;;;;;2.15;1.20;;;;;;;17.47;65.99;99997.91;10307593;28;98468;-73
2023/10/31 19:46:15;;;;;;;2.80;0.80;;;;;;;17.51;65.76;100026.00;10281625;28;98899;-72
2023/10/31 19:51:19;;;;;;;1.45;0.68;;;;;;;17.51;65.92;100020.69;10285693;28;98899;-73
2023/10/31 19:56:24;;;;;;;2.70;1.43;;;;;;;17.29;67.82;100014.31;10293072;28;96901;-74
2023/10/31 20:01:28;;;;;;;3.00;1.33;;;;;;;17.20;68.12;100005.16;10285033;28;100785;-74
2023/10/31 20:06:32;;;;;;;5.68;1.75;;;;;;;17.32;67.49;100003.44;10285696;28;98397;-75
2023/10/31 20:11:37;;;;;;;3.33;1.10;;;;;;;17.37;66.94;100018.13;10285794;28;97993;-74
2023/10/31 20:16:40;;;;;;;1.65;0.68;;;;;;;17.46;66.04;100020.16;10282594;28;96797;-74
2023/10/31 20:21:44;;;;;;;4.00;0.95;;;;;;;17.24;67.68;100021.75;10278799;28;97491;-75
2023/10/31 20:26:51;;;;;;;3.13;1.35;;;;;;;17.15;68.44;100027.72;10280445;28;97616;-77
2023/10/31 20:31:55;;;;;;;3.72;1.80;;;;;;;17.09;68.15;100007.72;10289405;28;98241;-76
2023/10/31 20:36:59;;;;;;;1.33;0.80;;;;;;;17.21;67.20;100011.34;10289338;28;97744;-77
2023/10/31 20:42:03;;;;;;;2.40;1.20;;;;;;;17.19;67.65;100007.94;10292915;28;98953;-75
2023/10/31 20:47:07;;;;;;;2.42;1.45;;;;;;;17.17;67.66;100024.00;10290281;28;97767;-78
2023/10/31 20:52:10;;;;;;;2.60;1.13;;;;;;;17.14;68.54;100026.84;10283258;28;97194;-77
2023/10/31 20:57:15;;;;;;;1.60;0.73;;;;;;;17.24;67.70;100033.25;10286351;28;98422;-78
2023/10/31 21:02:20;;;;;;;1.92;1.10;;;;;;;17.34;67.87;100030.78;10295288;28;99080;-78
2023/10/31 21:07:24;;;;;;;3.35;0.75;;;;;;;17.30;68.14;100030.16;10292148;28;98714;-81
2023/10/31 21:12:34;;;;;;;2.00;0.80;;;;;;;17.43;67.35;100027.47;10299092;28;98238;-82
2023/10/31 21:17:38;;;;;;;2.35;0.82;;;;;;;17.44;67.70;100030.03;10291535;28;97010;-82
2023/10/31 21:22:42;;;;;;;2.15;0.73;;;;;;;17.54;66.98;100036.41;10293894;28;96822;-83
2023/10/31 21:27:48;;;;;;;2.15;1.05;;;;;;;17.56;67.19;100031.84;10301599;28;98779;-82
2023/10/31 21:32:52;;;;;;;1.02;0.70;;;;;;;17.51;67.35;100039.31;10294520;28;96866;-84
2023/10/31 21:37:55;;;;;;;1.08;0.60;;;;;;;17.59;66.81;100033.44;10291285;28;97018;-83
2023/10/31 21:43:00;;;;;;;1.67;0.45;;;;;;;17.60;67.06;100046.63;10292160;28;97241;-81
2023/10/31 21:48:07;;;;;;;;;;;;;;;17.62;67.17;100046.53;10302904;28;96854;-81
2023/10/31 21:53:10;;;;;;;2.17;0.68;;;;;;;17.50;67.87;100044.75;10307010;28;97522;-81
2023/10/31 21:58:15;;;;;;;1.17;0.60;;;;;;;17.51;68.00;100038.44;10299124;28;96853;-81
2023/10/31 22:03:19;;;;;;;1.58;0.63;;;;;;;17.57;67.63;100038.84;10292415;28;98310;-82
2023/10/31 22:08:24;;;;;;;0.70;0.30;;;;;;;17.58;67.95;100042.38;10304647;28;96909;-81
2023/10/31 22:13:28;;;;;;;1.58;0.50;;;;;;;17.51;68.02;100030.47;10290926;28;98542;-81
2023/10/31 22:18:32;;;;;;;1.08;0.50;;;;;;;17.54;67.66;100007.16;10305765;28;97219;-81
2023/10/31 22:23:35;;;;;;;1.67;0.40;;;;;;;17.50;68.40;99996.84;10294548;28;97992;-82
2023/10/31 22:28:40;;;;;;;0.75;0.43;;;;;;;17.50;68.47;99972.91;10294651;28;97197;-81
2023/10/31 22:33:44;;;;;;;1.10;0.38;;;;;;;17.53;68.64;99996.63;10293367;28;96799;-83
2023/10/31 22:38:48;;;;;;;0.88;0.50;;;;;;;17.54;68.22;99975.22;10292952;28;96972;-83
2023/10/31 22:43:52;;;;;;;0.73;0.35;;;;;;;17.58;68.07;99991.81;10299214;28;96929;-81
2023/10/31 22:48:56;;;;;;;1.77;0.55;;;;;;;17.62;67.87;99982.66;10288577;28;97933;-81
2023/10/31 22:53:59;;;;;;;0.30;0.20;;;;;;;17.62;68.31;99988.81;10293774;28;96783;-82
2023/10/31 22:59:04;;;;;;;0.95;0.30;;;;;;;17.63;68.63;100003.84;10296937;28;98070;-81
2023/10/31 23:04:07;;;;;;;;;;;;;;;17.57;69.63;99985.63;10292684;28;98383;-82
2023/10/31 23:09:11;;;;;;;0.85;0.30;;;;;;;17.51;70.37;99978.13;10290987;28;96866;-81
2023/10/31 23:14:20;;;;;;;0.55;0.30;;;;;;;17.33;72.71;99973.25;10294028;28;96823;-85
2023/10/31 23:19:23;;;;;;;0.70;0.32;;;;;;;17.28;73.08;99967.38;10288493;28;96993;-87
2023/10/31 23:24:27;;;;;;;0.73;0.40;;;;;;;17.25;73.36;99965.78;10299412;28;98137;-90
2023/10/31 23:29:32;;;;;;;0.82;0.30;;;;;;;17.31;72.99;99973.31;10289573;28;96831;-86
2023/10/31 23:34:35;;;;;;;1.67;0.40;;;;;;;17.32;72.54;99974.19;10288202;28;97646;-86